createdAt,value
2023-04-09T00:00:40.609Z,9.93
2023-04-09T00:02:42.639Z,10.15
2023-04-09T00:04:44.353Z,5.97
2023-04-09T00:06:46.003Z,6.05
2023-04-09T00:08:47.458Z,8.50
2023-04-09T00:12:52.933Z,9.50
2023-04-09T00:14:55.653Z,11.32
2023-04-09T00:16:57.224Z,6.38
2023-04-09T00:18:58.655Z,11.50
2023-04-09T00:21:02.721Z,7.25
2023-04-09T00:23:07.231Z,6.97
2023-04-09T00:25:11.307Z,5.25
2023-04-09T00:27:15.865Z,8.40
2023-04-09T00:29:17.459Z,13.15
2023-04-09T00:31:21.835Z,10.55
2023-04-09T00:33:23.299Z,9.40
2023-04-09T00:35:43.261Z,9.05
2023-04-09T00:37:44.768Z,6.25
2023-04-09T00:39:47.577Z,7.68
2023-04-09T00:41:49.023Z,10.25
2023-04-09T00:44:08.942Z,7.32
2023-04-09T00:48:33.386Z,6.15
2023-04-09T00:50:34.820Z,8.30
2023-04-09T00:52:36.581Z,7.78
2023-04-09T00:54:38.090Z,10.55
2023-04-09T00:56:40.370Z,8.52
2023-04-09T00:58:44.764Z,9.55
2023-04-09T01:00:46.202Z,8.10
2023-04-09T01:02:52.986Z,10.60
2023-04-09T01:04:55.110Z,10.00
2023-04-09T01:07:00.171Z,8.68
2023-04-09T01:09:20.162Z,8.35
2023-04-09T01:11:24.580Z,12.38
2023-04-09T01:13:31.601Z,12.40
2023-04-09T01:15:36.356Z,12.10
2023-04-09T01:17:37.830Z,8.88
2023-04-09T01:20:11.837Z,10.50
2023-04-09T01:22:33.693Z,11.48
2023-04-09T01:25:00.558Z,12.80
2023-04-09T01:27:04.047Z,9.55
2023-04-09T01:29:06.018Z,8.93
2023-04-09T01:31:18.344Z,12.57
2023-04-09T01:33:22.875Z,12.00
2023-04-09T01:35:25.185Z,16.40
2023-04-09T01:37:26.933Z,9.45
2023-04-09T01:39:31.495Z,11.27
2023-04-09T01:41:41.507Z,8.85
2023-04-09T01:43:47.732Z,9.95
2023-04-09T01:45:52.119Z,9.65
2023-04-09T01:50:00.566Z,12.07
2023-04-09T01:52:04.896Z,17.67
2023-04-09T01:54:12.779Z,11.85
2023-04-09T01:56:17.063Z,10.30
2023-04-09T01:58:22.956Z,10.30
2023-04-09T02:00:27.029Z,11.60
2023-04-09T02:02:38.048Z,7.43
2023-04-09T02:04:41.312Z,10.43
2023-04-09T02:06:54.709Z,8.73
2023-04-09T02:08:59.892Z,10.55
2023-04-09T02:11:07.525Z,8.82
2023-04-09T02:13:30.582Z,9.18
2023-04-09T02:15:35.527Z,10.48
2023-04-09T02:17:38.986Z,11.70
2023-04-09T02:19:42.023Z,14.52
2023-04-09T02:21:44.328Z,11.95
2023-04-09T02:23:45.930Z,14.45
2023-04-09T02:25:47.515Z,15.15
2023-04-09T02:27:49.100Z,16.42
2023-04-09T02:30:09.126Z,14.48
2023-04-09T02:32:10.639Z,14.55
2023-04-09T02:34:12.160Z,17.65
2023-04-09T02:36:16.181Z,13.52
2023-04-09T02:38:20.736Z,13.80
2023-04-09T02:40:25.040Z,15.70
2023-04-09T02:42:26.526Z,10.20
2023-04-09T02:44:27.968Z,11.77
2023-04-09T02:46:29.427Z,11.55
2023-04-09T02:48:30.958Z,18.02
2023-04-09T02:50:51.025Z,13.38
2023-04-09T02:52:52.738Z,11.05
2023-04-09T02:54:54.225Z,12.40
2023-04-09T02:56:56.307Z,19.08
2023-04-09T02:58:57.835Z,13.18
2023-04-09T03:01:02.205Z,9.88
2023-04-09T03:03:04.006Z,14.32
2023-04-09T03:05:24.314Z,14.68
2023-04-09T03:09:32.657Z,14.77
2023-04-09T03:11:34.103Z,16.40
2023-04-09T03:13:35.705Z,14.82
2023-04-09T03:15:40.158Z,19.73
2023-04-09T03:17:44.506Z,16.40
2023-04-09T03:19:48.731Z,11.20
2023-04-09T03:21:53.114Z,12.10
2023-04-09T03:23:57.456Z,10.40
2023-04-09T03:26:02.803Z,9.57
2023-04-09T03:28:07.060Z,12.45
2023-04-09T03:30:11.654Z,11.68
2023-04-09T03:32:13.132Z,12.65
2023-04-09T03:34:14.738Z,9.70
2023-04-09T03:36:34.677Z,12.38
2023-04-09T03:38:36.271Z,14.82
2023-04-09T03:40:42.075Z,11.50
2023-04-09T03:42:43.928Z,11.32
2023-04-09T03:44:45.372Z,12.48
2023-04-09T03:46:49.650Z,15.35
2023-04-09T03:48:54.213Z,10.57
2023-04-09T03:50:55.937Z,13.95
2023-04-09T03:52:57.351Z,11.18
2023-04-09T03:55:17.350Z,9.55
2023-04-09T03:57:21.457Z,11.45
2023-04-09T03:59:23.222Z,12.02
2023-04-09T04:01:43.196Z,12.00
2023-04-09T04:03:47.847Z,12.02
2023-04-09T04:05:49.502Z,9.85
2023-04-09T04:07:53.889Z,11.35
2023-04-09T04:09:55.454Z,16.65
2023-04-09T04:11:58.778Z,13.45
2023-04-09T04:14:00.310Z,13.52
2023-04-09T04:16:01.968Z,10.75
2023-04-09T04:18:03.411Z,8.85
2023-04-09T04:20:08.013Z,18.42
2023-04-09T04:22:12.069Z,11.13
2023-04-09T04:24:16.534Z,9.95
2023-04-09T04:28:21.785Z,8.93
2023-04-09T04:30:23.612Z,9.98
2023-04-09T04:32:31.153Z,10.55
2023-04-09T04:34:51.283Z,8.98
2023-04-09T04:39:15.641Z,15.45
2023-04-09T04:41:18.302Z,10.35
2023-04-09T04:43:20.057Z,9.43
2023-04-09T04:45:26.533Z,11.35
2023-04-09T04:47:34.029Z,9.85
2023-04-09T04:49:47.275Z,11.68
2023-04-09T04:52:03.629Z,10.68
2023-04-09T04:54:17.453Z,14.93
2023-04-09T04:56:32.075Z,11.85
2023-04-09T04:58:45.595Z,11.18
2023-04-09T05:01:01.115Z,13.07
2023-04-09T05:05:22.867Z,10.73
2023-04-09T05:07:29.440Z,11.00
2023-04-09T05:09:47.563Z,13.30
2023-04-09T05:12:01.931Z,10.88
2023-04-09T05:14:14.172Z,12.10
2023-04-09T05:16:27.408Z,10.68
2023-04-09T05:18:42.538Z,9.90
2023-04-09T05:20:56.741Z,10.30
2023-04-09T05:23:15.042Z,12.15
2023-04-09T05:25:28.503Z,10.05
2023-04-09T05:27:35.005Z,9.75
2023-04-09T05:29:36.530Z,12.88
2023-04-09T05:31:43.719Z,11.80
2023-04-09T05:33:48.105Z,10.02
2023-04-09T05:35:52.073Z,13.10
2023-04-09T05:37:53.575Z,11.10
2023-04-09T05:39:58.034Z,12.43
2023-04-09T05:42:02.422Z,13.13
2023-04-09T05:44:03.925Z,15.50
2023-04-09T05:46:05.639Z,14.88
2023-04-09T05:48:10.088Z,12.52
2023-04-09T05:50:14.384Z,17.50
2023-04-09T05:52:17.027Z,15.52
2023-04-09T05:54:18.542Z,14.10
2023-04-09T05:56:23.444Z,18.83
2023-04-09T05:58:30.366Z,13.05
2023-04-09T06:00:31.919Z,14.25
2023-04-09T06:02:51.930Z,12.10
2023-04-09T06:04:56.699Z,9.43
2023-04-09T06:07:17.853Z,12.88
2023-04-09T06:09:21.917Z,16.75
2023-04-09T06:11:23.359Z,14.75
2023-04-09T06:13:24.954Z,13.40
2023-04-09T06:15:26.570Z,11.73
2023-04-09T06:17:29.132Z,13.02
2023-04-09T06:19:30.923Z,17.92
2023-04-09T06:21:33.378Z,12.20
2023-04-09T06:23:37.659Z,12.43
2023-04-09T06:27:43.295Z,13.32
2023-04-09T06:29:47.578Z,12.65
2023-04-09T06:32:07.718Z,11.95
2023-04-09T06:36:13.179Z,13.70
2023-04-09T06:38:17.603Z,14.85
2023-04-09T06:40:20.739Z,15.68
2023-04-09T06:42:27.043Z,21.80
2023-04-09T06:44:31.514Z,18.25
2023-04-09T06:46:35.932Z,24.92
2023-04-09T06:48:37.851Z,29.00
2023-04-09T06:50:42.027Z,25.40
2023-04-09T06:52:46.718Z,31.42
2023-04-09T06:54:48.205Z,44.00
2023-04-09T06:56:52.289Z,36.03
2023-04-09T06:58:56.673Z,55.35
2023-04-09T07:03:03.269Z,48.50
2023-04-09T07:05:05.162Z,54.63
2023-04-09T07:07:06.610Z,68.03
2023-04-09T07:09:08.100Z,73.03
2023-04-09T07:11:09.722Z,64.03
2023-04-09T07:13:16.844Z,55.33
2023-04-09T07:15:21.143Z,64.28
2023-04-09T07:17:25.724Z,58.08
2023-04-09T07:19:30.962Z,59.97
2023-04-09T07:21:32.581Z,51.30
2023-04-09T07:23:34.862Z,53.70
2023-04-09T07:25:39.248Z,48.55
2023-04-09T07:27:41.016Z,51.75
2023-04-09T07:29:45.691Z,47.05
2023-04-09T07:31:47.148Z,43.58
2023-04-09T07:33:48.750Z,43.45
2023-04-09T07:35:53.555Z,39.55
2023-04-09T07:37:55.955Z,47.43
2023-04-09T07:40:16.448Z,42.20
2023-04-09T07:42:20.765Z,35.10
2023-04-09T07:44:24.906Z,36.65
2023-04-09T07:46:26.518Z,37.95
2023-04-09T07:48:32.628Z,33.42
2023-04-09T07:50:34.941Z,31.15
2023-04-09T07:52:42.804Z,40.33
2023-04-09T07:54:54.294Z,32.00
2023-04-09T07:57:07.349Z,36.77
2023-04-09T07:59:23.052Z,35.80
2023-04-09T08:01:36.599Z,33.17
2023-04-09T08:03:52.257Z,37.50
2023-04-09T08:06:06.089Z,38.13
2023-04-09T08:08:20.853Z,39.80
2023-04-09T08:10:48.566Z,42.22
2023-04-09T08:13:00.430Z,38.00
2023-04-09T08:15:11.209Z,46.42
2023-04-09T08:17:23.207Z,44.83
2023-04-09T08:19:34.548Z,35.15
2023-04-09T08:21:50.229Z,34.55
2023-04-09T08:24:19.732Z,35.83
2023-04-09T08:26:30.459Z,28.90
2023-04-09T08:28:46.720Z,31.35
2023-04-09T08:30:50.096Z,31.48
2023-04-09T08:32:54.658Z,28.33
2023-04-09T08:34:56.173Z,30.83
2023-04-09T08:37:00.495Z,25.75
2023-04-09T08:39:02.236Z,29.77
2023-04-09T08:41:03.789Z,26.67
2023-04-09T08:43:06.972Z,28.30
2023-04-09T08:45:11.791Z,25.25
2023-04-09T08:47:16.254Z,25.67
2023-04-09T08:49:20.972Z,25.08
2023-04-09T08:51:25.693Z,22.23
2023-04-09T08:53:47.563Z,27.00
2023-04-09T08:55:49.016Z,26.52
2023-04-09T08:57:53.384Z,25.92
2023-04-09T08:59:54.884Z,23.20
2023-04-09T09:02:08.686Z,26.70
2023-04-09T09:04:43.415Z,22.40
2023-04-09T09:06:47.691Z,23.05
2023-04-09T09:09:07.571Z,24.48
2023-04-09T09:11:09.125Z,21.67
2023-04-09T09:13:22.375Z,20.48
2023-04-09T09:15:29.896Z,19.60
2023-04-09T09:17:31.659Z,21.90
2023-04-09T09:19:36.475Z,18.52
2023-04-09T09:21:39.413Z,20.60
2023-04-09T09:23:41.208Z,18.63
2023-04-09T09:25:43.329Z,17.67
2023-04-09T09:27:47.444Z,15.98
2023-04-09T09:29:48.960Z,15.57
2023-04-09T09:31:54.270Z,18.13
2023-04-09T09:34:01.115Z,20.98
2023-04-09T09:36:05.693Z,19.40
2023-04-09T09:38:07.218Z,21.38
2023-04-09T09:40:09.486Z,15.70
2023-04-09T09:42:10.961Z,22.15
2023-04-09T09:44:31.320Z,17.23
2023-04-09T09:46:38.431Z,18.02
2023-04-09T09:48:42.967Z,19.45
2023-04-09T09:50:45.420Z,17.88
2023-04-09T09:52:50.875Z,15.32
2023-04-09T09:54:53.333Z,15.38
2023-04-09T09:56:58.229Z,18.52
2023-04-09T09:59:05.735Z,16.02
2023-04-09T10:01:12.736Z,13.30
2023-04-09T10:03:21.391Z,15.25
2023-04-09T10:05:26.859Z,15.35
2023-04-09T10:07:29.057Z,19.05
2023-04-09T10:09:35.291Z,16.33
2023-04-09T10:11:42.474Z,15.65
2023-04-09T10:14:02.765Z,13.32
2023-04-09T10:16:23.429Z,16.27
2023-04-09T10:18:28.704Z,13.48
2023-04-09T10:20:36.194Z,18.30
2023-04-09T10:22:37.856Z,15.90
2023-04-09T10:24:40.035Z,16.65
2023-04-09T10:26:42.037Z,13.55
2023-04-09T10:28:43.553Z,15.20
2023-04-09T10:31:04.889Z,12.35
2023-04-09T10:33:23.046Z,13.90
2023-04-09T10:35:27.865Z,14.15
2023-04-09T10:37:29.944Z,14.25
2023-04-09T10:39:34.043Z,14.18
2023-04-09T10:41:35.772Z,16.58
2023-04-09T10:43:40.473Z,14.05
2023-04-09T10:45:42.452Z,14.68
2023-04-09T10:47:49.811Z,20.77
2023-04-09T10:49:55.272Z,14.32
2023-04-09T10:52:02.869Z,14.20
2023-04-09T10:54:25.899Z,17.90
2023-04-09T10:56:27.370Z,14.18
2023-04-09T10:58:30.310Z,14.65
2023-04-09T11:00:57.279Z,16.38
2023-04-09T11:03:11.591Z,22.27
2023-04-09T11:05:38.431Z,21.10
2023-04-09T11:08:06.919Z,14.60
2023-04-09T11:10:42.302Z,16.85
2023-04-09T11:12:59.169Z,18.27
2023-04-09T11:15:35.345Z,14.32
2023-04-09T11:17:48.406Z,12.05
2023-04-09T11:20:05.868Z,13.32
2023-04-09T11:22:17.318Z,17.88
2023-04-09T11:24:30.766Z,15.75
2023-04-09T11:26:58.307Z,13.60
2023-04-09T11:29:21.000Z,14.85
2023-04-09T11:31:39.938Z,14.07
2023-04-09T11:33:58.563Z,14.98
2023-04-09T11:36:19.023Z,13.43
2023-04-09T11:38:20.630Z,15.02
2023-04-09T11:40:26.472Z,12.73
2023-04-09T11:42:48.756Z,13.10
2023-04-09T11:44:50.361Z,17.23
2023-04-09T11:46:54.799Z,11.93
2023-04-09T11:49:15.372Z,11.80
2023-04-09T11:51:19.921Z,14.85
2023-04-09T11:53:24.597Z,16.73
2023-04-09T11:55:27.008Z,21.83
2023-04-09T11:57:41.528Z,15.38
2023-04-09T11:59:45.922Z,14.25
2023-04-09T12:01:51.289Z,12.40
2023-04-09T12:03:54.340Z,18.08
2023-04-09T12:06:02.637Z,11.90
2023-04-09T12:08:09.682Z,18.75
2023-04-09T12:10:14.019Z,15.93
2023-04-09T12:12:18.710Z,11.35
2023-04-09T12:14:22.916Z,15.02
2023-04-09T12:16:27.358Z,14.23
2023-04-09T12:18:31.578Z,15.02
2023-04-09T12:20:36.886Z,18.17
2023-04-09T12:22:40.847Z,18.83
2023-04-09T12:24:45.265Z,15.45
2023-04-09T12:26:49.811Z,17.42
2023-04-09T12:28:51.428Z,23.35
2023-04-09T12:30:53.315Z,18.25
2023-04-09T12:32:58.218Z,17.85
2023-04-09T12:34:59.592Z,17.00
2023-04-09T12:37:01.182Z,14.73
2023-04-09T12:39:02.614Z,14.68
2023-04-09T12:41:06.882Z,19.85
2023-04-09T12:43:11.244Z,20.70
2023-04-09T12:45:31.909Z,15.13
2023-04-09T12:47:33.436Z,17.40
2023-04-09T12:49:37.906Z,14.30
2023-04-09T12:51:39.835Z,14.75
2023-04-09T12:53:44.237Z,18.52
2023-04-09T12:55:48.775Z,20.58
2023-04-09T12:58:09.116Z,15.13
2023-04-09T13:00:10.890Z,15.77
2023-04-09T13:02:15.874Z,15.55
2023-04-09T13:04:20.372Z,16.30
2023-04-09T13:06:22.925Z,19.35
2023-04-09T13:08:24.344Z,16.02
2023-04-09T13:10:29.303Z,16.63
2023-04-09T13:12:33.570Z,21.88
2023-04-09T13:14:35.197Z,21.08
2023-04-09T13:16:36.939Z,19.95
2023-04-09T13:18:38.339Z,16.98
2023-04-09T13:20:39.901Z,19.40
2023-04-09T13:22:48.620Z,24.23
2023-04-09T13:24:50.329Z,21.95
2023-04-09T13:26:55.027Z,16.23
2023-04-09T13:28:56.459Z,17.83
2023-04-09T13:30:58.012Z,21.50
2023-04-09T13:33:02.548Z,19.08
2023-04-09T13:35:04.532Z,29.92
2023-04-09T13:37:06.254Z,21.13
2023-04-09T13:39:07.791Z,16.80
2023-04-09T13:41:12.280Z,19.63
2023-04-09T13:43:13.733Z,28.92
2023-04-09T13:45:15.564Z,22.10
2023-04-09T13:47:19.971Z,23.65
2023-04-09T13:49:21.424Z,23.80
2023-04-09T13:51:23.453Z,24.90
2023-04-09T13:53:27.690Z,23.77
2023-04-09T13:55:30.875Z,20.45
2023-04-09T13:57:32.304Z,19.38
2023-04-09T13:59:33.935Z,27.55
2023-04-09T14:01:38.291Z,22.73
2023-04-09T14:03:43.271Z,17.42
2023-04-09T14:05:50.021Z,26.13
2023-04-09T14:07:57.187Z,29.20
2023-04-09T14:10:23.820Z,22.17
2023-04-09T14:12:25.903Z,23.42
2023-04-09T14:14:27.630Z,24.95
2023-04-09T14:16:30.646Z,21.90
2023-04-09T14:18:34.824Z,27.65
2023-04-09T14:20:54.973Z,27.13
2023-04-09T14:22:59.434Z,22.02
2023-04-09T14:25:01.375Z,33.72
2023-04-09T14:27:09.057Z,28.80
2023-04-09T14:29:10.946Z,23.45
2023-04-09T14:31:13.443Z,26.02
2023-04-09T14:33:17.827Z,25.55
2023-04-09T14:35:20.116Z,29.05
2023-04-09T14:37:25.009Z,29.35
2023-04-09T14:39:26.746Z,25.98
2023-04-09T14:41:34.114Z,29.13
2023-04-09T14:43:35.925Z,24.23
2023-04-09T14:45:40.526Z,28.08
2023-04-09T14:47:44.705Z,33.58
2023-04-09T14:49:49.126Z,27.70
2023-04-09T14:51:50.659Z,27.55
2023-04-09T14:53:54.713Z,24.75
2023-04-09T14:55:56.412Z,32.33
2023-04-09T14:58:03.742Z,25.17
2023-04-09T15:00:08.984Z,28.52
2023-04-09T15:02:13.675Z,31.10
2023-04-09T15:04:15.783Z,23.63
2023-04-09T15:06:36.199Z,26.38
2023-04-09T15:08:40.652Z,24.55
2023-04-09T15:10:42.181Z,23.13
2023-04-09T15:12:43.672Z,25.60
2023-04-09T15:14:47.868Z,31.35
2023-04-09T15:16:49.693Z,34.38
2023-04-09T15:18:56.239Z,28.23
2023-04-09T15:21:00.660Z,27.75
2023-04-09T15:23:04.709Z,32.58
2023-04-09T15:27:13.127Z,30.77
2023-04-09T15:29:33.449Z,31.02
2023-04-09T15:31:40.039Z,22.95
2023-04-09T15:33:43.852Z,25.73
2023-04-09T15:36:04.009Z,28.08
2023-04-09T15:38:08.092Z,34.28
2023-04-09T15:40:12.644Z,39.65
2023-04-09T15:42:22.381Z,36.60
2023-04-09T15:44:23.979Z,45.38
2023-04-09T15:46:28.233Z,32.20
2023-04-09T15:48:32.690Z,37.10
2023-04-09T15:50:34.426Z,29.90
2023-04-09T15:52:36.376Z,34.88
2023-04-09T15:54:40.440Z,31.75
2023-04-09T15:56:42.236Z,34.58
2023-04-09T15:58:43.715Z,33.72
2023-04-09T16:00:51.355Z,32.85
2023-04-09T16:02:55.825Z,30.50
2023-04-09T16:04:57.375Z,33.13
2023-04-09T16:07:02.279Z,33.70
2023-04-09T16:09:06.764Z,34.00
2023-04-09T16:11:08.334Z,38.17
2023-04-09T16:13:12.432Z,33.80
2023-04-09T16:15:17.098Z,31.10
2023-04-09T16:17:21.861Z,30.20
2023-04-09T16:19:25.074Z,33.03
2023-04-09T16:21:27.658Z,30.37
2023-04-09T16:23:33.043Z,29.95
2023-04-09T16:25:37.472Z,31.30
2023-04-09T16:27:41.550Z,29.45
2023-04-09T16:29:43.270Z,31.95
2023-04-09T16:31:47.737Z,28.70
2023-04-09T16:33:53.655Z,30.67
2023-04-09T16:35:58.333Z,31.55
2023-04-09T16:38:00.047Z,27.23
2023-04-09T16:40:02.119Z,34.13
2023-04-09T16:42:07.252Z,30.30
2023-04-09T16:44:08.865Z,30.52
2023-04-09T16:46:11.627Z,29.52
2023-04-09T16:48:16.314Z,31.65
2023-04-09T16:50:36.572Z,34.40
2023-04-09T16:55:01.358Z,29.17
2023-04-09T16:57:06.092Z,25.38
2023-04-09T16:59:07.913Z,33.33
2023-04-09T17:01:12.456Z,30.38
2023-04-09T17:03:17.218Z,31.52
2023-04-09T17:05:18.744Z,26.58
2023-04-09T17:07:20.281Z,29.98
2023-04-09T17:11:32.658Z,32.00
2023-04-09T17:13:36.966Z,25.70
2023-04-09T17:15:41.462Z,30.23
2023-04-09T17:18:03.232Z,28.33
2023-04-09T17:20:07.094Z,31.45
2023-04-09T17:22:18.790Z,32.05
2023-04-09T17:24:23.328Z,30.13
2023-04-09T17:26:43.326Z,32.55
2023-04-09T17:30:51.982Z,27.73
2023-04-09T17:32:53.532Z,30.58
2023-04-09T17:34:59.470Z,31.33
2023-04-09T17:37:03.844Z,29.50
2023-04-09T17:39:09.756Z,30.55
2023-04-09T17:41:13.108Z,34.13
2023-04-09T17:43:19.678Z,28.75
2023-04-09T17:45:22.928Z,37.53
2023-04-09T17:47:27.529Z,32.95
2023-04-09T17:49:33.268Z,33.58
2023-04-09T17:51:37.414Z,33.88
2023-04-09T17:53:43.615Z,38.63
2023-04-09T17:55:48.887Z,33.60
2023-04-09T17:57:50.526Z,33.47
2023-04-09T17:59:53.259Z,39.10
2023-04-09T18:01:57.691Z,32.85
2023-04-09T18:04:03.103Z,30.27
2023-04-09T18:06:07.476Z,31.08
2023-04-09T18:08:12.402Z,35.40
2023-04-09T18:10:13.870Z,34.38
2023-04-09T18:12:15.858Z,26.77
2023-04-09T18:14:20.498Z,33.45
2023-04-09T18:16:23.306Z,27.23
2023-04-09T18:18:43.553Z,33.72
2023-04-09T18:20:48.350Z,34.50
2023-04-09T18:22:51.962Z,33.22
2023-04-09T18:25:00.266Z,29.15
2023-04-09T18:27:10.184Z,26.75
2023-04-09T18:29:13.035Z,26.90
2023-04-09T18:31:19.211Z,28.70
2023-04-09T18:33:25.882Z,22.58
2023-04-09T18:35:33.664Z,26.77
2023-04-09T18:37:40.387Z,30.98
2023-04-09T18:39:48.055Z,24.50
2023-04-09T18:41:53.475Z,31.90
2023-04-09T18:43:55.335Z,25.83
2023-04-09T18:45:57.335Z,27.60
2023-04-09T18:48:01.776Z,30.08
2023-04-09T18:50:06.446Z,33.10
2023-04-09T18:52:11.040Z,28.38
2023-04-09T18:54:15.713Z,29.00
2023-04-09T18:56:20.102Z,29.27
2023-04-09T18:58:40.446Z,29.35
2023-04-09T19:00:44.436Z,33.85
2023-04-09T19:02:48.834Z,30.92
2023-04-09T19:04:56.265Z,29.60
2023-04-09T19:07:00.041Z,28.23
2023-04-09T19:09:22.421Z,29.23
2023-04-09T19:11:24.601Z,34.75
2023-04-09T19:13:27.379Z,31.02
2023-04-09T19:15:30.553Z,28.55
2023-04-09T19:17:35.473Z,25.38
2023-04-09T19:19:37.340Z,31.88
2023-04-09T19:21:41.665Z,30.58
2023-04-09T19:23:43.172Z,24.92
2023-04-09T19:25:51.812Z,26.98
2023-04-09T19:28:11.644Z,25.83
2023-04-09T19:30:13.219Z,26.95
2023-04-09T19:32:14.830Z,27.08
2023-04-09T19:36:20.847Z,30.17
2023-04-09T19:38:22.343Z,29.70
2023-04-09T19:40:26.625Z,28.45
2023-04-09T19:42:46.631Z,26.33
2023-04-09T19:44:48.342Z,24.13
2023-04-09T19:46:58.477Z,26.35
2023-04-09T19:49:00.016Z,25.40
2023-04-09T19:51:20.286Z,30.40
2023-04-09T19:53:24.374Z,25.17
2023-04-09T19:55:28.839Z,25.70
2023-04-09T19:57:31.671Z,27.95
2023-04-09T19:59:36.326Z,26.52
2023-04-09T20:01:43.707Z,23.38
2023-04-09T20:03:45.309Z,24.50
2023-04-09T20:05:53.521Z,26.10
2023-04-09T20:07:55.073Z,28.52
2023-04-09T20:09:59.790Z,25.25
2023-04-09T20:12:04.405Z,26.83
2023-04-09T20:14:06.037Z,30.25
2023-04-09T20:16:07.501Z,27.63
2023-04-09T20:18:09.138Z,26.52
2023-04-09T20:20:13.258Z,29.17
2023-04-09T20:22:19.619Z,30.50
2023-04-09T20:24:28.253Z,27.23
2023-04-09T20:26:34.284Z,27.88
2023-04-09T20:28:37.256Z,26.52
2023-04-09T20:30:55.836Z,24.35
2023-04-09T20:35:03.726Z,30.23
2023-04-09T20:37:27.015Z,23.02
2023-04-09T20:39:34.056Z,28.42
2023-04-09T20:41:41.601Z,31.45
2023-04-09T20:43:46.140Z,27.35
2023-04-09T20:45:50.320Z,27.88
2023-04-09T20:47:56.481Z,24.35
2023-04-09T20:50:20.494Z,26.00
2023-04-09T20:52:28.681Z,26.77
2023-04-09T20:54:34.198Z,27.02
2023-04-09T20:56:36.013Z,28.20
2023-04-09T20:58:40.276Z,31.70
2023-04-09T21:00:42.049Z,27.42
2023-04-09T21:02:43.632Z,28.67
2023-04-09T21:04:48.072Z,26.50
2023-04-09T21:06:49.503Z,29.08
2023-04-09T21:11:00.816Z,22.17
2023-04-09T21:13:04.825Z,29.55
2023-04-09T21:15:09.284Z,25.85
2023-04-09T21:17:10.948Z,27.77
2023-04-09T21:19:12.388Z,31.63
2023-04-09T21:21:14.257Z,24.05
2023-04-09T21:23:15.875Z,27.00
2023-04-09T21:25:17.382Z,31.55
2023-04-09T21:27:21.842Z,32.05
2023-04-09T21:29:25.909Z,26.52
2023-04-09T21:31:27.437Z,24.52
2023-04-09T21:33:31.782Z,32.08
2023-04-09T21:35:33.511Z,28.33
2023-04-09T21:37:37.100Z,27.77
2023-04-09T21:39:41.331Z,26.67
2023-04-09T21:41:45.807Z,31.80
2023-04-09T21:43:47.939Z,26.77
2023-04-09T21:45:49.562Z,40.10
2023-04-09T21:47:51.088Z,23.85
2023-04-09T21:49:55.937Z,25.45
2023-04-09T21:52:03.419Z,25.02
2023-04-09T21:54:23.478Z,30.77
2023-04-09T21:58:29.947Z,26.77
2023-04-09T22:00:32.112Z,25.95
2023-04-09T22:02:33.674Z,22.50
2023-04-09T22:04:35.401Z,23.52
2023-04-09T22:06:36.905Z,22.88
2023-04-09T22:08:55.541Z,22.30
2023-04-09T22:10:57.996Z,23.73
2023-04-09T22:12:59.487Z,23.27
2023-04-09T22:17:08.816Z,27.52
2023-04-09T22:19:12.911Z,28.50
2023-04-09T22:21:17.261Z,28.88
2023-04-09T22:23:18.681Z,30.17
2023-04-09T22:25:38.752Z,24.88
2023-04-09T22:27:40.260Z,22.48
2023-04-09T22:29:44.360Z,24.67
2023-04-09T22:31:46.234Z,27.50
2023-04-09T22:33:50.611Z,27.95
2023-04-09T22:35:54.944Z,28.05
2023-04-09T22:37:56.398Z,31.02
2023-04-09T22:40:16.723Z,20.73
2023-04-09T22:42:18.181Z,27.65
2023-04-09T22:44:22.486Z,26.33
2023-04-09T22:46:23.929Z,26.92
2023-04-09T22:50:33.511Z,23.65
2023-04-09T22:52:37.594Z,22.58
2023-04-09T22:54:39.914Z,24.88
2023-04-09T22:56:59.601Z,29.27
2023-04-09T22:59:01.009Z,23.63
2023-04-09T23:01:03.481Z,22.63
2023-04-09T23:03:07.904Z,25.30
2023-04-09T23:05:09.770Z,26.98
2023-04-09T23:07:14.007Z,24.30
2023-04-09T23:09:18.320Z,23.40
2023-04-09T23:11:22.664Z,24.67
2023-04-09T23:13:26.989Z,28.05
2023-04-09T23:15:28.688Z,26.80
2023-04-09T23:17:32.723Z,24.63
2023-04-09T23:19:36.953Z,26.95
2023-04-09T23:21:41.204Z,24.77
2023-04-09T23:24:01.332Z,19.98
2023-04-09T23:26:02.747Z,18.25
2023-04-09T23:30:17.910Z,21.83
2023-04-09T23:32:24.785Z,20.73
2023-04-09T23:34:31.965Z,22.33
2023-04-09T23:36:38.768Z,28.38
2023-04-09T23:38:45.003Z,25.13
2023-04-09T23:40:51.832Z,32.35
2023-04-09T23:43:14.024Z,32.45
2023-04-09T23:45:17.069Z,24.15
2023-04-09T23:47:21.112Z,31.53
2023-04-09T23:49:31.121Z,34.95
2023-04-09T23:51:37.607Z,34.50
2023-04-09T23:53:44.495Z,29.65
2023-04-09T23:55:48.778Z,32.22
2023-04-09T23:57:52.811Z,28.35
2023-04-09T23:59:59.682Z,33.50
